sensor_id;sensor_type;location;lat;lon;timestamp;pressure;altitude;pressure_sealevel;temperature;humidity
84703;BME280;74927;50.988;11.318;2024-01-30T00:00:50;100519.03;;;3.24;75.38
84703;BME280;74927;50.988;11.318;2024-01-30T00:03:16;100517.94;;;3.20;74.93
84703;BME280;74927;50.988;11.318;2024-01-30T00:05:41;100515.69;;;3.25;75.19
84703;BME280;74927;50.988;11.318;2024-01-30T00:08:07;100529.09;;;3.21;74.87
84703;BME280;74927;50.988;11.318;2024-01-30T00:10:36;100521.91;;;3.15;75.20
84703;BME280;74927;50.988;11.318;2024-01-30T00:13:01;100517.44;;;3.26;75.43
84703;BME280;74927;50.988;11.318;2024-01-30T00:15:27;100536.63;;;3.31;75.03
84703;BME280;74927;50.988;11.318;2024-01-30T00:17:56;100521.50;;;3.22;75.31
84703;BME280;74927;50.988;11.318;2024-01-30T00:20:22;100521.41;;;3.21;74.74
84703;BME280;74927;50.988;11.318;2024-01-30T00:22:48;100516.69;;;3.14;74.99
84703;BME280;74927;50.988;11.318;2024-01-30T00:25:14;100518.06;;;3.22;75.70
84703;BME280;74927;50.988;11.318;2024-01-30T00:27:49;100527.25;;;3.18;75.31
84703;BME280;74927;50.988;11.318;2024-01-30T00:30:14;100521.81;;;3.68;72.75
84703;BME280;74927;50.988;11.318;2024-01-30T00:32:40;100508.53;;;4.04;71.48
84703;BME280;74927;50.988;11.318;2024-01-30T00:35:05;100508.38;;;4.31;70.22
84703;BME280;74927;50.988;11.318;2024-01-30T00:37:31;100511.22;;;4.50;69.80
84703;BME280;74927;50.988;11.318;2024-01-30T00:39:57;100508.41;;;4.60;69.95
84703;BME280;74927;50.988;11.318;2024-01-30T00:42:22;100500.50;;;4.72;68.88
84703;BME280;74927;50.988;11.318;2024-01-30T00:44:49;100494.88;;;4.79;68.07
84703;BME280;74927;50.988;11.318;2024-01-30T00:47:15;100495.75;;;4.95;67.49
84703;BME280;74927;50.988;11.318;2024-01-30T00:49:40;100488.72;;;5.07;66.51
84703;BME280;74927;50.988;11.318;2024-01-30T00:52:09;100489.03;;;5.13;66.73
84703;BME280;74927;50.988;11.318;2024-01-30T00:54:35;100492.59;;;5.15;66.97
84703;BME280;74927;50.988;11.318;2024-01-30T00:57:03;100493.75;;;5.20;66.46
84703;BME280;74927;50.988;11.318;2024-01-30T00:59:32;100486.25;;;5.25;66.07
84703;BME280;74927;50.988;11.318;2024-01-30T01:01:58;100494.63;;;5.21;66.24
84703;BME280;74927;50.988;11.318;2024-01-30T01:04:29;100483.53;;;5.22;65.98
84703;BME280;74927;50.988;11.318;2024-01-30T01:06:58;100489.00;;;5.28;65.50
84703;BME280;74927;50.988;11.318;2024-01-30T01:09:23;100481.28;;;5.28;65.40
84703;BME280;74927;50.988;11.318;2024-01-30T01:11:52;100477.00;;;5.29;65.45
84703;BME280;74927;50.988;11.318;2024-01-30T01:14:18;100482.88;;;5.26;65.64
84703;BME280;74927;50.988;11.318;2024-01-30T01:16:43;100482.88;;;5.26;65.51
84703;BME280;74927;50.988;11.318;2024-01-30T01:19:09;100477.53;;;5.23;65.84
84703;BME280;74927;50.988;11.318;2024-01-30T01:21:38;100482.00;;;5.25;66.64
84703;BME280;74927;50.988;11.318;2024-01-30T01:24:04;100477.69;;;5.10;66.78
84703;BME280;74927;50.988;11.318;2024-01-30T01:26:30;100485.78;;;5.01;67.81
84703;BME280;74927;50.988;11.318;2024-01-30T01:28:56;100486.72;;;4.57;68.92
84703;BME280;74927;50.988;11.318;2024-01-30T01:31:21;100493.03;;;4.47;69.37
84703;BME280;74927;50.988;11.318;2024-01-30T01:33:50;100486.19;;;4.33;70.20
84703;BME280;74927;50.988;11.318;2024-01-30T01:36:15;100490.72;;;4.37;69.87
84703;BME280;74927;50.988;11.318;2024-01-30T01:38:41;100484.69;;;4.21;70.56
84703;BME280;74927;50.988;11.318;2024-01-30T01:41:10;100483.34;;;4.13;71.41
84703;BME280;74927;50.988;11.318;2024-01-30T01:43:35;100477.56;;;4.17;71.22
84703;BME280;74927;50.988;11.318;2024-01-30T01:46:03;100484.59;;;4.35;70.30
84703;BME280;74927;50.988;11.318;2024-01-30T01:48:29;100477.84;;;4.22;71.01
84703;BME280;74927;50.988;11.318;2024-01-30T01:50:58;100479.94;;;4.14;71.42
84703;BME280;74927;50.988;11.318;2024-01-30T01:53:24;100481.00;;;4.03;70.95
84703;BME280;74927;50.988;11.318;2024-01-30T01:55:54;100477.47;;;4.01;71.01
84703;BME280;74927;50.988;11.318;2024-01-30T01:58:21;100473.94;;;4.14;70.66
84703;BME280;74927;50.988;11.318;2024-01-30T02:00:47;100474.19;;;4.18;70.25
84703;BME280;74927;50.988;11.318;2024-01-30T02:03:13;100472.13;;;3.98;71.28
84703;BME280;74927;50.988;11.318;2024-01-30T02:05:39;100477.41;;;3.86;71.84
84703;BME280;74927;50.988;11.318;2024-01-30T02:08:06;100469.34;;;3.80;72.76
84703;BME280;74927;50.988;11.318;2024-01-30T02:10:33;100474.81;;;3.71;72.31
84703;BME280;74927;50.988;11.318;2024-01-30T02:12:58;100479.16;;;3.72;72.75
84703;BME280;74927;50.988;11.318;2024-01-30T02:15:24;100474.91;;;3.73;72.91
84703;BME280;74927;50.988;11.318;2024-01-30T02:17:49;100475.38;;;3.80;71.53
84703;BME280;74927;50.988;11.318;2024-01-30T02:20:15;100473.41;;;4.19;70.22
84703;BME280;74927;50.988;11.318;2024-01-30T02:22:41;100462.03;;;4.45;69.12
84703;BME280;74927;50.988;11.318;2024-01-30T02:25:08;100462.13;;;4.77;67.05
84703;BME280;74927;50.988;11.318;2024-01-30T02:27:33;100457.06;;;4.48;68.31
84703;BME280;74927;50.988;11.318;2024-01-30T02:29:59;100465.31;;;4.43;68.77
84703;BME280;74927;50.988;11.318;2024-01-30T02:32:24;100473.84;;;4.12;70.86
84703;BME280;74927;50.988;11.318;2024-01-30T02:34:49;100474.81;;;4.29;68.81
84703;BME280;74927;50.988;11.318;2024-01-30T02:37:16;100457.44;;;4.86;65.50
84703;BME280;74927;50.988;11.318;2024-01-30T02:39:42;100447.88;;;5.15;64.51
84703;BME280;74927;50.988;11.318;2024-01-30T02:42:07;100451.28;;;5.30;63.91
84703;BME280;74927;50.988;11.318;2024-01-30T02:44:32;100447.91;;;5.48;62.80
84703;BME280;74927;50.988;11.318;2024-01-30T02:46:58;100444.13;;;5.41;63.14
84703;BME280;74927;50.988;11.318;2024-01-30T02:49:23;100448.72;;;5.30;63.73
84703;BME280;74927;50.988;11.318;2024-01-30T02:51:49;100451.66;;;5.21;64.12
84703;BME280;74927;50.988;11.318;2024-01-30T02:54:14;100448.53;;;5.27;63.40
84703;BME280;74927;50.988;11.318;2024-01-30T02:56:40;100444.25;;;5.11;64.95
84703;BME280;74927;50.988;11.318;2024-01-30T02:59:05;100449.13;;;4.90;65.67
84703;BME280;74927;50.988;11.318;2024-01-30T03:01:31;100440.69;;;4.78;66.93
84703;BME280;74927;50.988;11.318;2024-01-30T03:03:57;100444.97;;;4.62;67.26
84703;BME280;74927;50.988;11.318;2024-01-30T03:06:22;100441.78;;;4.52;66.62
84703;BME280;74927;50.988;11.318;2024-01-30T03:08:48;100443.63;;;4.54;66.59
84703;BME280;74927;50.988;11.318;2024-01-30T03:11:13;100440.69;;;4.78;64.78
84703;BME280;74927;50.988;11.318;2024-01-30T03:13:39;100430.94;;;5.03;63.59
84703;BME280;74927;50.988;11.318;2024-01-30T03:16:05;100429.00;;;5.16;63.26
84703;BME280;74927;50.988;11.318;2024-01-30T03:18:30;100429.97;;;5.18;63.17
84703;BME280;74927;50.988;11.318;2024-01-30T03:20:56;100433.84;;;5.10;63.18
84703;BME280;74927;50.988;11.318;2024-01-30T03:23:21;100432.03;;;4.92;64.61
84703;BME280;74927;50.988;11.318;2024-01-30T03:25:46;100436.63;;;4.66;66.13
84703;BME280;74927;50.988;11.318;2024-01-30T03:28:12;100427.31;;;4.54;65.66
84703;BME280;74927;50.988;11.318;2024-01-30T03:30:37;100428.56;;;4.45;66.21
84703;BME280;74927;50.988;11.318;2024-01-30T03:33:03;100425.38;;;4.35;67.33
84703;BME280;74927;50.988;11.318;2024-01-30T03:35:28;100424.50;;;4.19;68.29
84703;BME280;74927;50.988;11.318;2024-01-30T03:37:54;100432.00;;;4.01;68.49
84703;BME280;74927;50.988;11.318;2024-01-30T03:40:19;100433.78;;;3.87;68.96
84703;BME280;74927;50.988;11.318;2024-01-30T03:42:45;100432.50;;;3.81;70.21
84703;BME280;74927;50.988;11.318;2024-01-30T03:45:10;100432.88;;;3.72;69.62
84703;BME280;74927;50.988;11.318;2024-01-30T03:47:36;100428.16;;;3.65;70.01
84703;BME280;74927;50.988;11.318;2024-01-30T03:50:01;100425.25;;;3.74;70.18
84703;BME280;74927;50.988;11.318;2024-01-30T03:52:30;100423.97;;;3.67;70.48
84703;BME280;74927;50.988;11.318;2024-01-30T03:54:55;100420.06;;;3.59;70.84
84703;BME280;74927;50.988;11.318;2024-01-30T03:57:20;100414.47;;;3.51;70.80
84703;BME280;74927;50.988;11.318;2024-01-30T03:59:47;100422.59;;;3.44;71.46
84703;BME280;74927;50.988;11.318;2024-01-30T04:02:12;100413.28;;;3.46;72.13
84703;BME280;74927;50.988;11.318;2024-01-30T04:04:38;100420.72;;;3.41;71.41
84703;BME280;74927;50.988;11.318;2024-01-30T04:07:03;100421.72;;;3.30;71.86
84703;BME280;74927;50.988;11.318;2024-01-30T04:09:29;100427.06;;;3.33;72.36
84703;BME280;74927;50.988;11.318;2024-01-30T04:11:54;100424.41;;;3.31;72.22
84703;BME280;74927;50.988;11.318;2024-01-30T04:14:20;100427.47;;;3.26;72.19
84703;BME280;74927;50.988;11.318;2024-01-30T04:16:45;100430.88;;;3.11;72.01
84703;BME280;74927;50.988;11.318;2024-01-30T04:19:11;100432.28;;;3.06;73.19
84703;BME280;74927;50.988;11.318;2024-01-30T04:21:36;100438.50;;;3.10;72.92
84703;BME280;74927;50.988;11.318;2024-01-30T04:24:02;100433.28;;;2.95;72.87
84703;BME280;74927;50.988;11.318;2024-01-30T04:26:27;100442.00;;;2.84;73.67
84703;BME280;74927;50.988;11.318;2024-01-30T04:28:53;100437.13;;;2.88;74.29
84703;BME280;74927;50.988;11.318;2024-01-30T04:31:19;100443.97;;;2.75;74.08
84703;BME280;74927;50.988;11.318;2024-01-30T04:33:44;100449.13;;;2.75;74.43
84703;BME280;74927;50.988;11.318;2024-01-30T04:36:09;100447.81;;;2.81;73.68
84703;BME280;74927;50.988;11.318;2024-01-30T04:38:35;100444.16;;;2.78;73.76
84703;BME280;74927;50.988;11.318;2024-01-30T04:41:01;100445.34;;;2.69;74.96
84703;BME280;74927;50.988;11.318;2024-01-30T04:43:26;100452.84;;;2.66;74.68
84703;BME280;74927;50.988;11.318;2024-01-30T04:45:52;100446.84;;;2.66;75.08
84703;BME280;74927;50.988;11.318;2024-01-30T04:48:18;100443.66;;;2.57;75.73
84703;BME280;74927;50.988;11.318;2024-01-30T04:50:43;100442.69;;;2.55;75.68
84703;BME280;74927;50.988;11.318;2024-01-30T04:53:08;100432.91;;;2.49;75.53
84703;BME280;74927;50.988;11.318;2024-01-30T04:55:35;100433.28;;;2.42;75.62
84703;BME280;74927;50.988;11.318;2024-01-30T04:58:00;100432.19;;;2.38;76.06
84703;BME280;74927;50.988;11.318;2024-01-30T05:00:26;100435.19;;;2.31;75.90
84703;BME280;74927;50.988;11.318;2024-01-30T05:02:52;100430.34;;;2.36;75.83
84703;BME280;74927;50.988;11.318;2024-01-30T05:05:17;100426.50;;;2.56;74.96
84703;BME280;74927;50.988;11.318;2024-01-30T05:07:42;100431.03;;;2.73;73.65
84703;BME280;74927;50.988;11.318;2024-01-30T05:10:08;100427.56;;;2.86;72.95
84703;BME280;74927;50.988;11.318;2024-01-30T05:12:34;100425.00;;;2.86;72.69
84703;BME280;74927;50.988;11.318;2024-01-30T05:14:59;100432.88;;;2.89;73.20
84703;BME280;74927;50.988;11.318;2024-01-30T05:17:25;100430.44;;;2.77;73.62
84703;BME280;74927;50.988;11.318;2024-01-30T05:19:50;100432.91;;;2.76;74.36
84703;BME280;74927;50.988;11.318;2024-01-30T05:22:16;100429.94;;;2.83;73.78
84703;BME280;74927;50.988;11.318;2024-01-30T05:24:44;100426.09;;;2.76;73.42
84703;BME280;74927;50.988;11.318;2024-01-30T05:27:09;100428.19;;;2.68;74.07
84703;BME280;74927;50.988;11.318;2024-01-30T05:29:35;100421.97;;;2.65;74.12
84703;BME280;74927;50.988;11.318;2024-01-30T05:32:01;100425.91;;;2.73;74.26
84703;BME280;74927;50.988;11.318;2024-01-30T05:34:26;100426.59;;;2.70;74.92
84703;BME280;74927;50.988;11.318;2024-01-30T05:36:51;100433.88;;;2.64;74.24
84703;BME280;74927;50.988;11.318;2024-01-30T05:39:17;100425.03;;;2.59;74.04
84703;BME280;74927;50.988;11.318;2024-01-30T05:41:42;100427.06;;;2.51;74.39
84703;BME280;74927;50.988;11.318;2024-01-30T05:44:08;100423.44;;;2.48;74.88
84703;BME280;74927;50.988;11.318;2024-01-30T05:46:35;100427.97;;;2.52;74.26
84703;BME280;74927;50.988;11.318;2024-01-30T05:49:01;100440.00;;;2.53;74.64
84703;BME280;74927;50.988;11.318;2024-01-30T05:51:26;100433.72;;;2.48;74.61
84703;BME280;74927;50.988;11.318;2024-01-30T05:53:53;100434.69;;;2.50;74.30
84703;BME280;74927;50.988;11.318;2024-01-30T05:56:18;100441.91;;;2.42;74.81
84703;BME280;74927;50.988;11.318;2024-01-30T05:58:44;100441.19;;;2.45;74.75
84703;BME280;74927;50.988;11.318;2024-01-30T06:01:10;100445.25;;;2.41;75.19
84703;BME280;74927;50.988;11.318;2024-01-30T06:03:38;100442.28;;;2.35;75.30
84703;BME280;74927;50.988;11.318;2024-01-30T06:06:04;100437.44;;;2.26;75.27
84703;BME280;74927;50.988;11.318;2024-01-30T06:08:29;100431.53;;;2.27;75.66
84703;BME280;74927;50.988;11.318;2024-01-30T06:10:55;100432.41;;;2.28;75.52
84703;BME280;74927;50.988;11.318;2024-01-30T06:13:20;100433.88;;;2.24;75.40
84703;BME280;74927;50.988;11.318;2024-01-30T06:15:46;100436.91;;;2.19;75.13
84703;BME280;74927;50.988;11.318;2024-01-30T06:18:11;100433.00;;;2.24;75.80
84703;BME280;74927;50.988;11.318;2024-01-30T06:20:37;100423.50;;;2.23;75.60
84703;BME280;74927;50.988;11.318;2024-01-30T06:23:02;100427.16;;;2.26;75.37
84703;BME280;74927;50.988;11.318;2024-01-30T06:25:28;100427.16;;;2.26;75.26
84703;BME280;74927;50.988;11.318;2024-01-30T06:27:54;100418.88;;;2.30;75.73
84703;BME280;74927;50.988;11.318;2024-01-30T06:30:19;100419.28;;;2.37;74.78
84703;BME280;74927;50.988;11.318;2024-01-30T06:32:45;100420.06;;;2.36;75.32
84703;BME280;74927;50.988;11.318;2024-01-30T06:35:10;100416.13;;;2.41;74.43
84703;BME280;74927;50.988;11.318;2024-01-30T06:37:36;100412.88;;;2.43;74.78
84703;BME280;74927;50.988;11.318;2024-01-30T06:40:02;100414.34;;;2.40;74.26
84703;BME280;74927;50.988;11.318;2024-01-30T06:42:30;100415.91;;;2.38;74.82
84703;BME280;74927;50.988;11.318;2024-01-30T06:44:55;100415.03;;;2.37;75.03
84703;BME280;74927;50.988;11.318;2024-01-30T06:47:20;100424.81;;;2.29;74.53
84703;BME280;74927;50.988;11.318;2024-01-30T06:49:46;100423.00;;;2.28;74.89
84703;BME280;74927;50.988;11.318;2024-01-30T06:52:11;100417.09;;;2.29;75.13
84703;BME280;74927;50.988;11.318;2024-01-30T06:54:37;100417.22;;;2.31;74.39
84703;BME280;74927;50.988;11.318;2024-01-30T06:57:02;100427.75;;;2.22;75.10
84703;BME280;74927;50.988;11.318;2024-01-30T06:59:28;100423.69;;;2.12;75.89
84703;BME280;74927;50.988;11.318;2024-01-30T07:01:53;100421.03;;;2.11;76.00
84703;BME280;74927;50.988;11.318;2024-01-30T07:04:19;100422.22;;;2.16;75.48
84703;BME280;74927;50.988;11.318;2024-01-30T07:06:44;100428.06;;;2.40;74.58
84703;BME280;74927;50.988;11.318;2024-01-30T07:09:10;100423.13;;;2.57;73.75
84703;BME280;74927;50.988;11.318;2024-01-30T07:11:36;100424.41;;;2.90;72.09
84703;BME280;74927;50.988;11.318;2024-01-30T07:14:01;100420.91;;;3.16;70.60
84703;BME280;74927;50.988;11.318;2024-01-30T07:16:30;100419.63;;;3.38;70.15
84703;BME280;74927;50.988;11.318;2024-01-30T07:18:55;100416.19;;;3.80;67.03
84703;BME280;74927;50.988;11.318;2024-01-30T07:21:22;100414.25;;;3.76;68.27
84703;BME280;74927;50.988;11.318;2024-01-30T07:23:53;100419.03;;;3.70;68.03
84703;BME280;74927;50.988;11.318;2024-01-30T07:26:18;100421.06;;;3.61;68.94
84703;BME280;74927;50.988;11.318;2024-01-30T07:28:44;100418.63;;;3.64;69.20
84703;BME280;74927;50.988;11.318;2024-01-30T07:31:09;100420.00;;;3.72;68.68
84703;BME280;74927;50.988;11.318;2024-01-30T07:33:35;100419.78;;;3.54;69.24
84703;BME280;74927;50.988;11.318;2024-01-30T07:36:01;100432.31;;;3.35;71.39
84703;BME280;74927;50.988;11.318;2024-01-30T07:38:26;100426.81;;;3.15;72.59
84703;BME280;74927;50.988;11.318;2024-01-30T07:40:52;100428.03;;;3.07;71.88
84703;BME280;74927;50.988;11.318;2024-01-30T07:43:17;100425.34;;;3.05;73.14
84703;BME280;74927;50.988;11.318;2024-01-30T07:45:43;100433.66;;;3.01;73.42
84703;BME280;74927;50.988;11.318;2024-01-30T07:48:08;100431.88;;;3.00;73.60
84703;BME280;74927;50.988;11.318;2024-01-30T07:50:34;100428.31;;;2.98;73.47
84703;BME280;74927;50.988;11.318;2024-01-30T07:53:00;100435.63;;;3.05;74.00
84703;BME280;74927;50.988;11.318;2024-01-30T07:55:26;100430.59;;;3.07;73.51
84703;BME280;74927;50.988;11.318;2024-01-30T07:57:54;100428.41;;;3.13;74.11
84703;BME280;74927;50.988;11.318;2024-01-30T08:00:23;100427.47;;;3.26;73.95
84703;BME280;74927;50.988;11.318;2024-01-30T08:02:48;100425.63;;;3.23;74.02
84703;BME280;74927;50.988;11.318;2024-01-30T08:05:14;100436.56;;;3.34;73.72
84703;BME280;74927;50.988;11.318;2024-01-30T08:07:43;100427.13;;;3.48;73.72
84703;BME280;74927;50.988;11.318;2024-01-30T08:10:11;100431.13;;;3.58;72.90
84703;BME280;74927;50.988;11.318;2024-01-30T08:12:37;100437.47;;;3.63;72.74
84703;BME280;74927;50.988;11.318;2024-01-30T08:15:03;100423.00;;;3.65;72.52
84703;BME280;74927;50.988;11.318;2024-01-30T08:17:28;100426.66;;;3.68;72.17
84703;BME280;74927;50.988;11.318;2024-01-30T08:19:54;100423.81;;;3.79;71.18
84703;BME280;74927;50.988;11.318;2024-01-30T08:22:19;100416.56;;;3.86;72.32
84703;BME280;74927;50.988;11.318;2024-01-30T08:24:45;100423.31;;;3.99;72.54
84703;BME280;74927;50.988;11.318;2024-01-30T08:27:10;100414.44;;;4.09;71.67
84703;BME280;74927;50.988;11.318;2024-01-30T08:29:37;100420.84;;;4.16;70.88
84703;BME280;74927;50.988;11.318;2024-01-30T08:32:04;100411.19;;;4.26;71.59
84703;BME280;74927;50.988;11.318;2024-01-30T08:34:29;100409.13;;;4.36;71.24
84703;BME280;74927;50.988;11.318;2024-01-30T08:36:58;100409.13;;;4.51;70.45
84703;BME280;74927;50.988;11.318;2024-01-30T08:39:23;100397.25;;;4.69;70.82
84703;BME280;74927;50.988;11.318;2024-01-30T08:41:49;100399.78;;;4.84;70.34
84703;BME280;74927;50.988;11.318;2024-01-30T08:44:14;100398.13;;;5.01;70.83
84703;BME280;74927;50.988;11.318;2024-01-30T08:46:40;100385.97;;;4.98;69.93
84703;BME280;74927;50.988;11.318;2024-01-30T08:49:05;100392.28;;;5.03;70.68
84703;BME280;74927;50.988;11.318;2024-01-30T08:51:31;100396.47;;;5.18;68.61
84703;BME280;74927;50.988;11.318;2024-01-30T08:53:56;100389.00;;;5.22;69.84
84703;BME280;74927;50.988;11.318;2024-01-30T08:56:22;100390.69;;;5.38;70.42
84703;BME280;74927;50.988;11.318;2024-01-30T08:58:47;100390.94;;;5.59;68.59
84703;BME280;74927;50.988;11.318;2024-01-30T09:01:13;100390.69;;;5.71;67.71
84703;BME280;74927;50.988;11.318;2024-01-30T09:03:39;100388.78;;;5.85;67.79
84703;BME280;74927;50.988;11.318;2024-01-30T09:06:10;100381.13;;;6.03;67.52
84703;BME280;74927;50.988;11.318;2024-01-30T09:08:35;100380.63;;;6.28;67.20
84703;BME280;74927;50.988;11.318;2024-01-30T09:11:02;100380.16;;;6.53;64.27
84703;BME280;74927;50.988;11.318;2024-01-30T09:13:27;100382.41;;;6.83;64.88
84703;BME280;74927;50.988;11.318;2024-01-30T09:15:53;100379.88;;;7.03;63.97
84703;BME280;74927;50.988;11.318;2024-01-30T09:18:18;100375.66;;;7.24;64.97
84703;BME280;74927;50.988;11.318;2024-01-30T09:20:44;100381.66;;;7.43;62.33
84703;BME280;74927;50.988;11.318;2024-01-30T09:23:12;100373.03;;;7.42;61.72
84703;BME280;74927;50.988;11.318;2024-01-30T09:25:38;100372.19;;;7.43;63.61
84703;BME280;74927;50.988;11.318;2024-01-30T09:28:04;100376.63;;;7.26;63.41
84703;BME280;74927;50.988;11.318;2024-01-30T09:30:29;100379.19;;;7.26;63.32
84703;BME280;74927;50.988;11.318;2024-01-30T09:32:55;100376.88;;;7.13;65.19
84703;BME280;74927;50.988;11.318;2024-01-30T09:35:20;100372.72;;;7.16;65.31
84703;BME280;74927;50.988;11.318;2024-01-30T09:37:46;100369.19;;;7.14;65.51
84703;BME280;74927;50.988;11.318;2024-01-30T09:40:11;100370.91;;;7.14;64.73
84703;BME280;74927;50.988;11.318;2024-01-30T09:42:37;100370.56;;;7.06;64.79
84703;BME280;74927;50.988;11.318;2024-01-30T09:45:03;100368.31;;;7.14;65.22
84703;BME280;74927;50.988;11.318;2024-01-30T09:47:40;100376.56;;;7.25;65.40
84703;BME280;74927;50.988;11.318;2024-01-30T09:50:07;100371.81;;;7.34;66.16
84703;BME280;74927;50.988;11.318;2024-01-30T09:52:33;100371.25;;;7.41;64.74
84703;BME280;74927;50.988;11.318;2024-01-30T09:55:00;100373.41;;;7.32;65.08
84703;BME280;74927;50.988;11.318;2024-01-30T09:57:26;100365.13;;;7.39;66.17
84703;BME280;74927;50.988;11.318;2024-01-30T09:59:51;100373.22;;;7.47;65.02
84703;BME280;74927;50.988;11.318;2024-01-30T10:02:20;100367.75;;;7.60;63.50
84703;BME280;74927;50.988;11.318;2024-01-30T10:04:49;100360.63;;;7.95;63.61
84703;BME280;74927;50.988;11.318;2024-01-30T10:07:15;100358.44;;;8.04;63.74
84703;BME280;74927;50.988;11.318;2024-01-30T10:09:41;100354.38;;;8.32;63.96
84703;BME280;74927;50.988;11.318;2024-01-30T10:12:07;100350.81;;;8.94;62.89
84703;BME280;74927;50.988;11.318;2024-01-30T10:14:34;100344.72;;;9.65;59.67
84703;BME280;74927;50.988;11.318;2024-01-30T10:17:01;100332.69;;;10.20;57.66
84703;BME280;74927;50.988;11.318;2024-01-30T10:19:26;100330.09;;;10.74;55.32
84703;BME280;74927;50.988;11.318;2024-01-30T10:21:52;100335.34;;;11.04;53.17
84703;BME280;74927;50.988;11.318;2024-01-30T10:24:18;100324.66;;;11.57;51.81
84703;BME280;74927;50.988;11.318;2024-01-30T10:26:44;100323.69;;;11.87;50.32
84703;BME280;74927;50.988;11.318;2024-01-30T10:29:09;100324.75;;;11.60;51.74
84703;BME280;74927;50.988;11.318;2024-01-30T10:31:35;100324.94;;;11.04;53.35
84703;BME280;74927;50.988;11.318;2024-01-30T10:34:00;100325.41;;;10.62;55.45
84703;BME280;74927;50.988;11.318;2024-01-30T10:36:28;100317.34;;;10.53;55.94
84703;BME280;74927;50.988;11.318;2024-01-30T10:38:59;100324.72;;;10.15;57.63
84703;BME280;74927;50.988;11.318;2024-01-30T10:41:31;100329.06;;;10.15;57.53
84703;BME280;74927;50.988;11.318;2024-01-30T10:44:08;100330.81;;;10.41;57.48
84703;BME280;74927;50.988;11.318;2024-01-30T10:46:38;100329.06;;;10.40;57.68
84703;BME280;74927;50.988;11.318;2024-01-30T10:49:05;100322.38;;;10.48;57.71
84703;BME280;74927;50.988;11.318;2024-01-30T10:51:32;100318.53;;;10.37;57.84
84703;BME280;74927;50.988;11.318;2024-01-30T10:53:58;100321.19;;;10.39;57.91
84703;BME280;74927;50.988;11.318;2024-01-30T10:56:25;100323.84;;;10.40;58.11
84703;BME280;74927;50.988;11.318;2024-01-30T10:58:52;100320.22;;;10.35;58.28
84703;BME280;74927;50.988;11.318;2024-01-30T11:01:22;100325.81;;;10.47;58.25
84703;BME280;74927;50.988;11.318;2024-01-30T11:03:54;100313.78;;;10.80;57.75
84703;BME280;74927;50.988;11.318;2024-01-30T11:06:25;100317.59;;;10.91;57.54
84703;BME280;74927;50.988;11.318;2024-01-30T11:09:03;100301.72;;;11.12;56.92
84703;BME280;74927;50.988;11.318;2024-01-30T11:11:52;100305.59;;;11.90;55.49
84703;BME280;74927;50.988;11.318;2024-01-30T11:14:23;100296.25;;;12.76;52.17
84703;BME280;74927;50.988;11.318;2024-01-30T11:16:50;100286.31;;;13.00;50.88
84703;BME280;74927;50.988;11.318;2024-01-30T11:19:22;100281.03;;;13.40;50.83
84703;BME280;74927;50.988;11.318;2024-01-30T11:21:50;100282.19;;;13.54;50.45
84703;BME280;74927;50.988;11.318;2024-01-30T11:24:16;100282.19;;;13.54;50.96
84703;BME280;74927;50.988;11.318;2024-01-30T11:26:44;100279.91;;;12.84;51.79
84703;BME280;74927;50.988;11.318;2024-01-30T11:29:13;100281.34;;;12.31;53.99
84703;BME280;74927;50.988;11.318;2024-01-30T11:31:39;100289.00;;;11.88;54.94
84703;BME280;74927;50.988;11.318;2024-01-30T11:34:05;100289.16;;;11.61;56.03
84703;BME280;74927;50.988;11.318;2024-01-30T11:36:31;100280.69;;;11.70;55.87
84703;BME280;74927;50.988;11.318;2024-01-30T11:39:00;100283.94;;;11.61;56.23
84703;BME280;74927;50.988;11.318;2024-01-30T11:41:25;100274.53;;;11.66;56.43
84703;BME280;74927;50.988;11.318;2024-01-30T11:43:52;100269.31;;;11.66;56.54
84703;BME280;74927;50.988;11.318;2024-01-30T11:46:18;100275.31;;;11.63;56.19
84703;BME280;74927;50.988;11.318;2024-01-30T11:48:43;100272.41;;;11.86;55.88
84703;BME280;74927;50.988;11.318;2024-01-30T11:51:09;100260.41;;;12.28;54.86
84703;BME280;74927;50.988;11.318;2024-01-30T11:53:34;100251.28;;;12.47;54.40
84703;BME280;74927;50.988;11.318;2024-01-30T11:56:00;100256.31;;;12.39;54.38
84703;BME280;74927;50.988;11.318;2024-01-30T11:58:25;100251.47;;;12.56;54.18
84703;BME280;74927;50.988;11.318;2024-01-30T12:00:55;100249.94;;;12.66;54.43
84703;BME280;74927;50.988;11.318;2024-01-30T12:03:21;100249.31;;;12.77;54.53
84703;BME280;74927;50.988;11.318;2024-01-30T12:05:55;100251.09;;;12.80;55.27
84703;BME280;74927;50.988;11.318;2024-01-30T12:08:21;100247.25;;;13.05;54.42
84703;BME280;74927;50.988;11.318;2024-01-30T12:10:55;100254.06;;;13.41;53.48
84703;BME280;74927;50.988;11.318;2024-01-30T12:13:21;100240.66;;;13.71;52.64
84703;BME280;74927;50.988;11.318;2024-01-30T12:15:47;100240.03;;;13.86;50.75
84703;BME280;74927;50.988;11.318;2024-01-30T12:18:12;100246.13;;;13.87;51.00
84703;BME280;74927;50.988;11.318;2024-01-30T12:20:38;100246.91;;;13.79;50.34
84703;BME280;74927;50.988;11.318;2024-01-30T12:23:03;100247.38;;;13.55;51.60
84703;BME280;74927;50.988;11.318;2024-01-30T12:25:29;100250.47;;;13.36;51.96
84703;BME280;74927;50.988;11.318;2024-01-30T12:27:55;100241.91;;;13.43;52.06
84703;BME280;74927;50.988;11.318;2024-01-30T12:30:20;100245.84;;;13.22;53.43
84703;BME280;74927;50.988;11.318;2024-01-30T12:32:49;100237.56;;;13.44;53.88
84703;BME280;74927;50.988;11.318;2024-01-30T12:35:16;100233.88;;;13.31;52.97
84703;BME280;74927;50.988;11.318;2024-01-30T12:37:46;100234.41;;;13.16;54.15
84703;BME280;74927;50.988;11.318;2024-01-30T12:40:14;100230.72;;;13.06;53.86
84703;BME280;74927;50.988;11.318;2024-01-30T12:42:43;100231.50;;;13.00;54.22